Time;durP1;ratioP1;P1;durP2;ratioP2;P2;SDS_P1;SDS_P2;PMS_P1;PMS_P2;Temp;Humidity;BMP_temperature;BMP_pressure;BME280_temperature;BME280_humidity;BME280_pressure;Samples;Min_cycle;Max_cycle;Signal;HPM_P1;HPM_P2
2023/09/25 00:00:53;;;;;;;2.60;2.20;;;7.30;99.90;;;;;;2074366;28;20312;-82
2023/09/25 00:01:54;;;;;;;5.17;2.60;;;7.30;99.90;;;;;;2071486;28;20267;-83
2023/09/25 00:02:55;;;;;;;4.57;2.73;;;7.40;99.90;;;;;;2072186;28;20217;-83
2023/09/25 00:03:55;;;;;;;2.97;2.43;;;7.40;99.90;;;;;;2071856;28;20812;-82
2023/09/25 00:04:56;;;;;;;5.23;2.70;;;7.50;99.90;;;;;;2071928;28;20233;-82
2023/09/25 00:05:56;;;;;;;2.97;2.47;;;7.50;99.90;;;;;;2074680;28;20246;-82
2023/09/25 00:06:58;;;;;;;3.27;2.40;;;7.50;99.90;;;;;;2080074;28;20674;-83
2023/09/25 00:07:59;;;;;;;2.85;2.17;;;7.40;99.90;;;;;;2079017;28;20221;-83
2023/09/25 00:08:59;;;;;;;6.30;2.77;;;7.50;99.90;;;;;;2074862;28;20218;-84
2023/09/25 00:10:00;;;;;;;4.03;2.40;;;7.40;99.90;;;;;;2073880;28;20260;-83
2023/09/25 00:11:01;;;;;;;4.93;2.90;;;7.40;99.90;;;;;;2065225;28;20246;-84
2023/09/25 00:12:01;;;;;;;4.13;2.20;;;7.60;99.90;;;;;;2073344;28;20222;-84
2023/09/25 00:13:02;;;;;;;3.53;2.90;;;7.40;99.90;;;;;;2073802;28;20303;-84
2023/09/25 00:14:02;;;;;;;4.17;2.80;;;7.40;99.90;;;;;;2072930;28;20229;-83
2023/09/25 00:15:05;;;;;;;5.13;2.50;;;7.50;99.90;;;;;;2081524;28;20189;-84
2023/09/25 00:16:11;;;;;;;3.25;2.45;;;7.50;99.90;;;;;;2081056;28;20748;-82
2023/09/25 00:17:12;;;;;;;2.83;2.45;;;7.40;99.90;;;;;;2073278;28;20189;-84
2023/09/25 00:18:13;;;;;;;5.07;2.80;;;7.50;99.90;;;;;;2060503;28;20190;-84
2023/09/25 00:19:15;;;;;;;3.55;2.63;;;7.40;99.90;;;;;;2061112;28;20636;-83
2023/09/25 00:20:20;;;;;;;6.38;2.60;;;7.50;99.90;;;;;;2071134;28;20279;-83
2023/09/25 00:21:20;;;;;;;5.20;2.65;;;7.40;99.90;;;;;;2073019;28;20251;-83
2023/09/25 00:22:21;;;;;;;4.10;2.40;;;7.50;99.90;;;;;;2073287;28;20190;-84
2023/09/25 00:23:21;;;;;;;4.33;2.30;;;7.30;99.90;;;;;;2072929;28;20558;-84
2023/09/25 00:24:22;;;;;;;3.40;2.50;;;7.30;99.90;;;;;;2072744;28;20206;-84
2023/09/25 00:25:28;;;;;;;4.93;2.47;;;7.30;99.90;;;;;;2072515;28;20253;-84
2023/09/25 00:26:28;;;;;;;3.10;2.28;;;7.40;99.90;;;;;;2071737;28;20283;-82
2023/09/25 00:27:31;;;;;;;3.27;2.67;;;7.40;99.90;;;;;;2072694;28;20730;-83
2023/09/25 00:28:32;;;;;;;2.92;2.40;;;7.40;99.90;;;;;;2073142;28;20279;-84
2023/09/25 00:29:33;;;;;;;4.60;2.70;;;7.40;99.90;;;;;;2069666;28;20236;-83
2023/09/25 00:30:34;;;;;;;2.93;2.50;;;7.50;99.90;;;;;;2063875;28;20639;-83
2023/09/25 00:31:36;;;;;;;4.37;2.50;;;7.60;99.90;;;;;;2064018;28;20234;-83
2023/09/25 00:32:37;;;;;;;3.95;2.30;;;7.60;99.90;;;;;;2064225;28;20230;-84
2023/09/25 00:33:37;;;;;;;2.67;2.47;;;7.50;99.90;;;;;;2064411;28;20365;-84
2023/09/25 00:34:38;;;;;;;3.23;2.30;;;7.60;99.90;;;;;;2068283;28;20279;-82
2023/09/25 00:35:42;;;;;;;3.10;2.30;;;7.60;99.90;;;;;;2072332;28;20233;-83
2023/09/25 00:36:44;;;;;;;3.25;2.55;;;7.50;99.90;;;;;;2071681;28;20311;-82
2023/09/25 00:37:44;;;;;;;2.63;2.25;;;7.50;99.90;;;;;;2072010;28;20279;-83
2023/09/25 00:38:45;;;;;;;3.07;2.47;;;7.50;99.90;;;;;;2071449;28;20279;-83
2023/09/25 00:39:46;;;;;;;2.90;2.30;;;7.40;99.90;;;;;;2063618;28;20611;-83
2023/09/25 00:40:47;;;;;;;3.90;2.47;;;7.50;99.90;;;;;;2063790;28;20221;-81
2023/09/25 00:41:48;;;;;;;6.85;2.80;;;7.50;99.90;;;;;;2063420;28;20239;-84
2023/09/25 00:42:50;;;;;;;5.53;2.30;;;7.50;99.90;;;;;;2063278;28;20221;-82
2023/09/25 00:43:51;;;;;;;3.33;2.33;;;7.60;99.90;;;;;;2071795;28;20221;-82
2023/09/25 00:44:51;;;;;;;6.70;2.50;;;7.60;99.90;;;;;;2071724;28;20721;-84
2023/09/25 00:45:52;;;;;;;3.70;2.27;;;7.50;99.90;;;;;;2072008;28;20323;-84
2023/09/25 00:46:52;;;;;;;2.87;2.40;;;7.60;99.90;;;;;;2063436;28;20222;-82
2023/09/25 00:47:54;;;;;;;3.13;2.60;;;7.50;99.90;;;;;;2071908;28;20228;-83
2023/09/25 00:48:54;;;;;;;4.05;2.33;;;7.60;99.90;;;;;;2080400;28;20286;-83
2023/09/25 00:49:55;;;;;;;2.63;2.20;;;7.50;99.90;;;;;;2071636;28;20713;-84
2023/09/25 00:50:59;;;;;;;2.60;2.40;;;7.50;99.90;;;;;;2072035;28;20224;-84
2023/09/25 00:52:00;;;;;;;3.40;2.42;;;7.50;99.90;;;;;;2071928;28;20244;-83
2023/09/25 00:53:06;;;;;;;3.57;2.30;;;7.50;99.90;;;;;;2072540;28;20276;-83
2023/09/25 00:54:07;;;;;;;2.60;2.10;;;7.40;99.90;;;;;;2060830;28;20225;-83
2023/09/25 00:55:09;;;;;;;4.18;2.67;;;7.30;99.90;;;;;;2072028;28;20194;-82
2023/09/25 00:56:10;;;;;;;4.85;2.72;;;7.40;99.90;;;;;;2063713;28;20187;-83
2023/09/25 00:57:11;;;;;;;3.87;2.40;;;7.40;99.90;;;;;;2071953;28;20239;-82
2023/09/25 00:58:13;;;;;;;2.95;2.30;;;7.30;99.90;;;;;;2072145;28;20201;-84
2023/09/25 00:59:15;;;;;;;3.97;2.58;;;7.40;99.90;;;;;;2072090;28;20659;-83
2023/09/25 01:00:17;;;;;;;4.60;3.30;;;7.40;99.90;;;;;;2071095;28;20185;-83
2023/09/25 01:01:19;;;;;;;7.38;5.80;;;7.40;99.90;;;;;;2062022;28;20216;-84
2023/09/25 01:02:20;;;;;;;10.10;6.10;;;7.40;99.90;;;;;;2063057;28;20213;-83
2023/09/25 01:03:20;;;;;;;7.67;6.17;;;7.40;99.90;;;;;;2071709;28;20671;-84
2023/09/25 01:04:24;;;;;;;8.77;6.07;;;7.30;99.90;;;;;;2078386;28;20189;-83
2023/09/25 01:05:25;;;;;;;7.28;5.20;;;7.30;99.90;;;;;;2071971;28;20237;-83
2023/09/25 01:06:26;;;;;;;5.70;4.60;;;7.30;99.90;;;;;;2062492;28;20241;-83
2023/09/25 01:07:26;;;;;;;5.47;3.63;;;7.40;99.90;;;;;;2070660;28;20703;-81
2023/09/25 01:08:27;;;;;;;5.20;3.60;;;7.20;99.90;;;;;;2080015;28;20507;-82
2023/09/25 01:09:28;;;;;;;4.83;3.43;;;7.20;99.90;;;;;;2070947;28;20253;-83
2023/09/25 01:10:28;;;;;;;4.80;3.30;;;7.20;99.90;;;;;;2071019;28;20241;-83
2023/09/25 01:11:29;;;;;;;3.60;3.30;;;7.10;99.90;;;;;;2070313;28;20613;-84
2023/09/25 01:12:31;;;;;;;4.07;3.07;;;7.10;99.90;;;;;;2071543;28;20876;-83
2023/09/25 01:13:32;;;;;;;3.58;2.97;;;7.00;99.90;;;;;;2071835;28;20320;-83
2023/09/25 01:14:32;;;;;;;3.00;2.70;;;7.00;99.90;;;;;;2072418;28;20229;-83
2023/09/25 01:15:33;;;;;;;4.20;2.60;;;7.00;99.90;;;;;;2067805;28;20243;-82
2023/09/25 01:16:33;;;;;;;3.50;2.97;;;7.00;99.90;;;;;;2071672;28;20233;-83
2023/09/25 01:17:34;;;;;;;3.33;2.87;;;7.00;99.90;;;;;;2071262;28;20283;-83
2023/09/25 01:18:35;;;;;;;4.00;3.00;;;7.00;99.90;;;;;;2063699;28;20230;-84
2023/09/25 01:19:35;;;;;;;4.40;3.10;;;6.90;99.90;;;;;;2070025;28;20241;-83
2023/09/25 01:20:37;;;;;;;4.40;3.00;;;6.90;99.90;;;;;;2068662;28;20230;-83
2023/09/25 01:21:37;;;;;;;3.53;2.72;;;6.90;99.90;;;;;;2059721;28;20278;-83
2023/09/25 01:22:49;;;;;;;4.53;3.10;;;6.90;99.90;;;;;;2071237;28;20276;-82
2023/09/25 01:23:49;;;;;;;3.70;3.38;;;6.80;99.90;;;;;;2071405;28;20213;-83
2023/09/25 01:24:50;;;;;;;4.00;3.43;;;6.80;99.90;;;;;;2063329;28;20222;-83
2023/09/25 01:25:50;;;;;;;5.33;3.00;;;6.80;99.90;;;;;;2070554;28;20288;-83
2023/09/25 01:26:51;;;;;;;3.40;2.80;;;6.90;99.90;;;;;;2072024;28;20249;-83
2023/09/25 01:27:52;;;;;;;3.83;3.10;;;6.80;99.90;;;;;;2071654;28;20218;-83
2023/09/25 01:28:52;;;;;;;4.10;2.80;;;6.70;99.90;;;;;;2062820;28;20227;-83
2023/09/25 01:29:53;;;;;;;3.40;2.83;;;6.80;99.90;;;;;;2063209;28;20222;-84
2023/09/25 01:30:54;;;;;;;4.10;2.80;;;6.70;99.90;;;;;;2070929;28;20248;-83
2023/09/25 01:31:54;;;;;;;3.10;2.80;;;6.70;99.90;;;;;;2062850;28;20305;-83
2023/09/25 01:32:55;;;;;;;3.30;2.80;;;6.70;99.90;;;;;;2063364;28;20711;-84
2023/09/25 01:33:56;;;;;;;2.90;2.60;;;6.80;99.90;;;;;;2066999;28;20217;-83
2023/09/25 01:34:57;;;;;;;3.50;2.80;;;6.70;99.90;;;;;;2068309;28;20217;-84
2023/09/25 01:35:59;;;;;;;3.63;2.80;;;6.70;99.90;;;;;;2071133;28;20213;-83
2023/09/25 01:37:04;;;;;;;2.45;2.25;;;6.70;99.90;;;;;;2072044;28;20267;-83
2023/09/25 01:38:05;;;;;;;4.97;2.42;;;6.70;99.90;;;;;;2071507;28;20218;-84
2023/09/25 01:39:08;;;;;;;3.17;2.70;;;6.70;99.90;;;;;;2071591;28;20231;-83
2023/09/25 01:40:17;;;;;;;3.22;2.72;;;6.60;99.90;;;;;;2068942;28;20212;-83
2023/09/25 01:41:17;;;;;;;2.40;2.20;;;6.50;99.90;;;;;;2065324;28;20198;-82
2023/09/25 01:42:18;;;;;;;4.03;2.53;;;6.50;99.90;;;;;;2072787;28;20194;-83
2023/09/25 01:43:18;;;;;;;3.20;2.20;;;6.50;99.90;;;;;;2072994;28;20189;-83
2023/09/25 01:44:19;;;;;;;4.50;2.47;;;6.50;99.90;;;;;;2073255;28;20233;-84
2023/09/25 01:45:19;;;;;;;4.27;2.70;;;6.60;99.90;;;;;;2079896;28;20735;-83
2023/09/25 01:46:20;;;;;;;3.43;2.50;;;6.60;99.90;;;;;;2078947;28;20189;-83
2023/09/25 01:47:21;;;;;;;2.80;2.00;;;6.60;99.90;;;;;;2079031;28;20534;-83
2023/09/25 01:48:21;;;;;;;3.47;2.23;;;6.50;99.90;;;;;;2077881;28;20173;-83
2023/09/25 01:49:22;;;;;;;4.00;2.40;;;6.50;99.90;;;;;;2071825;28;20331;-82
2023/09/25 01:50:24;;;;;;;3.57;2.50;;;6.50;99.90;;;;;;2072635;28;20291;-83
2023/09/25 01:51:25;;;;;;;3.03;2.60;;;6.50;99.90;;;;;;2072590;28;20235;-82
2023/09/25 01:52:28;;;;;;;3.83;2.47;;;6.50;99.90;;;;;;2072302;28;20285;-82
2023/09/25 01:53:29;;;;;;;2.90;2.33;;;6.50;99.90;;;;;;2064766;28;20236;-83
2023/09/25 01:54:29;;;;;;;3.10;2.40;;;6.40;99.90;;;;;;2071486;28;20617;-83
2023/09/25 01:55:35;;;;;;;4.50;2.67;;;6.40;99.90;;;;;;2071140;28;20226;-83
2023/09/25 01:56:35;;;;;;;3.72;2.58;;;6.40;99.90;;;;;;2064344;28;20889;-82
2023/09/25 01:57:36;;;;;;;3.63;2.50;;;6.50;99.90;;;;;;2070989;28;20332;-83
2023/09/25 01:58:37;;;;;;;2.77;2.23;;;6.40;99.90;;;;;;2072780;28;20654;-82
2023/09/25 01:59:38;;;;;;;3.22;2.72;;;6.30;99.90;;;;;;2072595;28;20577;-82
2023/09/25 02:00:38;;;;;;;3.20;2.70;;;6.30;99.90;;;;;;2072320;28;20244;-82
2023/09/25 02:01:39;;;;;;;4.93;2.60;;;6.30;99.90;;;;;;2080549;28;20249;-82
2023/09/25 02:02:43;;;;;;;3.50;2.78;;;6.30;99.90;;;;;;2080419;28;20344;-81
2023/09/25 02:03:44;;;;;;;5.32;2.22;;;6.30;99.90;;;;;;2077137;28;20264;-82
2023/09/25 02:04:44;;;;;;;3.22;2.50;;;6.30;99.90;;;;;;2074417;28;20233;-84
2023/09/25 02:05:45;;;;;;;2.67;2.47;;;6.20;99.90;;;;;;2073927;28;20225;-83
2023/09/25 02:06:45;;;;;;;4.30;2.70;;;6.20;99.90;;;;;;2074231;28;20733;-84
2023/09/25 02:07:46;;;;;;;6.17;2.70;;;6.10;99.90;;;;;;2074831;28;20225;-84
2023/09/25 02:08:47;;;;;;;3.13;2.40;;;6.10;99.90;;;;;;2074514;28;20348;-84
2023/09/25 02:09:47;;;;;;;2.60;2.40;;;6.20;99.90;;;;;;2074976;28;20232;-84
2023/09/25 02:10:48;;;;;;;4.17;2.73;;;6.10;99.90;;;;;;2074135;28;20257;-83
2023/09/25 02:11:48;;;;;;;5.37;2.87;;;6.00;99.90;;;;;;2074284;28;20229;-83
2023/09/25 02:12:49;;;;;;;4.40;2.83;;;6.00;99.90;;;;;;2069290;28;20224;-84
2023/09/25 02:13:50;;;;;;;3.33;2.90;;;6.00;99.90;;;;;;2073901;28;20224;-83
2023/09/25 02:14:53;;;;;;;2.73;2.50;;;6.10;99.90;;;;;;2074177;28;20245;-83
2023/09/25 02:15:55;;;;;;;4.60;2.75;;;6.10;99.90;;;;;;2073343;28;20221;-84
2023/09/25 02:16:55;;;;;;;3.50;2.70;;;6.20;99.90;;;;;;2073107;28;20312;-84
2023/09/25 02:17:56;;;;;;;3.33;2.40;;;6.00;99.90;;;;;;2073514;28;20224;-82
2023/09/25 02:18:57;;;;;;;4.50;2.83;;;6.00;99.90;;;;;;2072803;28;20218;-83
2023/09/25 02:20:10;;;;;;;3.40;2.97;;;6.10;99.90;;;;;;2073550;28;20224;-84
2023/09/25 02:21:11;;;;;;;4.10;2.78;;;6.00;99.90;;;;;;2077916;28;20267;-84
2023/09/25 02:22:12;;;;;;;3.23;2.80;;;6.00;99.90;;;;;;2081396;28;20279;-83
2023/09/25 02:23:12;;;;;;;3.37;2.40;;;6.00;99.90;;;;;;2081345;28;20209;-82
2023/09/25 02:24:13;;;;;;;3.50;2.27;;;6.00;99.90;;;;;;2073506;28;20765;-84
2023/09/25 02:25:14;;;;;;;2.60;2.20;;;6.00;99.90;;;;;;2072637;28;20209;-83
2023/09/25 02:26:15;;;;;;;2.47;2.15;;;5.90;99.90;;;;;;2068804;28;20181;-82
2023/09/25 02:27:15;;;;;;;2.83;2.03;;;5.90;99.90;;;;;;2062455;28;20574;-83
2023/09/25 02:28:16;;;;;;;3.47;2.37;;;5.70;99.90;;;;;;2069065;28;20274;-84
2023/09/25 02:29:16;;;;;;;2.53;2.30;;;5.70;99.90;;;;;;2079499;28;20613;-83
2023/09/25 02:30:17;;;;;;;3.53;2.43;;;5.70;99.90;;;;;;2073118;28;20215;-83
2023/09/25 02:31:18;;;;;;;2.60;2.40;;;5.60;99.90;;;;;;2064741;28;20213;-84
2023/09/25 02:32:19;;;;;;;2.50;2.30;;;5.60;99.90;;;;;;2072987;28;20556;-83
2023/09/25 02:33:19;;;;;;;3.67;2.47;;;5.60;99.90;;;;;;2072947;28;20178;-84
2023/09/25 02:34:20;;;;;;;5.50;2.53;;;5.50;99.90;;;;;;2063085;28;20220;-82
2023/09/25 02:35:21;;;;;;;4.30;2.53;;;5.60;99.90;;;;;;2066383;28;20190;-84
2023/09/25 02:36:22;;;;;;;3.63;2.67;;;5.60;99.90;;;;;;2069428;28;20187;-84
2023/09/25 02:37:22;;;;;;;4.50;2.80;;;5.50;99.90;;;;;;2060579;28;20227;-83
2023/09/25 02:38:23;;;;;;;3.10;2.80;;;5.50;99.90;;;;;;2072414;28;20618;-83
2023/09/25 02:39:23;;;;;;;5.73;2.90;;;5.60;99.90;;;;;;2081027;28;20232;-83
2023/09/25 02:40:24;;;;;;;2.97;2.60;;;5.40;99.90;;;;;;2073017;28;20294;-84
2023/09/25 02:41:24;;;;;;;4.37;2.40;;;5.40;99.90;;;;;;2072884;28;20239;-82
2023/09/25 02:42:25;;;;;;;2.67;2.47;;;5.50;99.90;;;;;;2073856;28;20240;-82
2023/09/25 02:43:26;;;;;;;2.27;2.07;;;5.50;99.90;;;;;;2073563;28;20229;-84
2023/09/25 02:44:27;;;;;;;3.38;2.85;;;5.40;99.90;;;;;;2072482;28;20299;-84
2023/09/25 02:45:27;;;;;;;4.90;2.40;;;5.50;99.90;;;;;;2072448;28;20240;-84
2023/09/25 02:46:28;;;;;;;4.37;2.93;;;5.50;99.90;;;;;;2072398;28;20237;-82
2023/09/25 02:47:28;;;;;;;3.23;2.70;;;5.50;99.90;;;;;;2073653;28;20353;-82
2023/09/25 02:48:29;;;;;;;4.10;1.90;;;5.50;99.90;;;;;;2072529;28;20239;-84
2023/09/25 02:49:30;;;;;;;2.97;2.30;;;5.50;99.90;;;;;;2075598;28;20244;-82
2023/09/25 02:50:30;;;;;;;3.90;2.20;;;5.50;99.90;;;;;;2078914;28;20237;-82
2023/09/25 02:51:31;;;;;;;2.67;2.17;;;5.40;99.90;;;;;;2079078;28;20272;-81
2023/09/25 02:52:31;;;;;;;4.07;2.40;;;5.40;99.90;;;;;;2071503;28;20234;-83
2023/09/25 02:53:32;;;;;;;2.97;2.60;;;5.30;99.90;;;;;;2068367;28;20789;-84
2023/09/25 02:54:33;;;;;;;2.97;2.37;;;5.30;99.90;;;;;;2066119;28;20230;-82
2023/09/25 02:55:34;;;;;;;3.03;2.30;;;5.30;99.90;;;;;;2068249;28;20236;-83
2023/09/25 02:56:34;;;;;;;2.85;2.63;;;5.30;99.90;;;;;;2068206;28;20295;-84
2023/09/25 02:57:35;;;;;;;3.67;2.37;;;5.20;99.90;;;;;;2073136;28;20245;-83
2023/09/25 02:58:35;;;;;;;3.07;2.57;;;5.20;99.90;;;;;;2073202;28;20221;-84
2023/09/25 02:59:36;;;;;;;5.43;2.83;;;5.10;99.90;;;;;;2072973;28;20260;-84
2023/09/25 03:00:37;;;;;;;4.73;3.10;;;5.10;99.90;;;;;;2074045;28;20256;-83
2023/09/25 03:01:37;;;;;;;3.57;3.07;;;5.00;99.90;;;;;;2073410;28;20229;-83
2023/09/25 03:02:38;;;;;;;3.53;3.03;;;5.00;99.90;;;;;;2072996;28;20463;-84
2023/09/25 03:03:40;;;;;;;4.83;3.60;;;5.00;99.90;;;;;;2064495;28;20269;-82
2023/09/25 03:04:41;;;;;;;6.75;3.83;;;5.00;99.90;;;;;;2064995;28;20230;-84
2023/09/25 03:05:42;;;;;;;3.77;3.17;;;5.10;99.90;;;;;;2065519;28;20238;-84
2023/09/25 03:06:42;;;;;;;3.13;2.70;;;5.20;99.90;;;;;;2072899;28;20241;-85
2023/09/25 03:07:43;;;;;;;3.87;3.10;;;5.20;99.90;;;;;;2074042;28;20233;-82
2023/09/25 03:08:43;;;;;;;4.60;3.20;;;5.30;99.90;;;;;;2073378;28;20264;-82
2023/09/25 03:09:44;;;;;;;4.13;2.87;;;5.30;99.90;;;;;;2073135;28;20233;-84
2023/09/25 03:10:44;;;;;;;4.43;2.80;;;5.30;99.90;;;;;;2072584;28;20272;-84
2023/09/25 03:11:45;;;;;;;3.20;2.73;;;5.40;99.90;;;;;;2071713;28;20235;-83
2023/09/25 03:12:46;;;;;;;4.27;3.57;;;5.30;99.90;;;;;;2073076;28;20229;-84
2023/09/25 03:13:46;;;;;;;6.00;3.93;;;5.30;99.90;;;;;;2073140;28;20232;-84
2023/09/25 03:14:47;;;;;;;5.23;3.80;;;5.30;99.90;;;;;;2072183;28;20232;-84
2023/09/25 03:15:47;;;;;;;5.07;3.97;;;5.30;99.90;;;;;;2072602;28;20280;-84
2023/09/25 03:16:48;;;;;;;4.37;3.60;;;5.30;99.90;;;;;;2072085;28;20236;-84
2023/09/25 03:17:49;;;;;;;4.87;3.70;;;5.30;99.90;;;;;;2064365;28;20236;-83
2023/09/25 03:18:50;;;;;;;5.57;3.80;;;5.30;99.90;;;;;;2064364;28;20249;-84
2023/09/25 03:19:51;;;;;;;4.87;3.50;;;5.30;99.90;;;;;;2064467;28;20255;-84
2023/09/25 03:20:53;;;;;;;4.68;3.45;;;5.20;99.90;;;;;;2064183;28;20218;-84
2023/09/25 03:21:54;;;;;;;6.53;3.67;;;5.30;99.90;;;;;;2063919;28;20253;-83
2023/09/25 03:22:54;;;;;;;5.33;3.93;;;5.20;99.90;;;;;;2072485;28;20224;-84
2023/09/25 03:23:55;;;;;;;8.00;4.80;;;5.20;99.90;;;;;;2072143;28;20278;-83
2023/09/25 03:24:56;;;;;;;8.27;5.37;;;5.10;99.90;;;;;;2072671;28;20229;-83
2023/09/25 03:25:56;;;;;;;8.20;5.77;;;5.10;99.90;;;;;;2072765;28;20251;-84
2023/09/25 03:26:58;;;;;;;9.10;6.07;;;5.10;99.90;;;;;;2071974;28;20300;-84
2023/09/25 03:27:59;;;;;;;8.15;5.63;;;5.20;99.90;;;;;;2072357;28;20290;-84
2023/09/25 03:28:59;;;;;;;8.97;5.13;;;5.10;99.90;;;;;;2072364;28;20220;-83
2023/09/25 03:30:00;;;;;;;7.50;5.50;;;5.10;99.90;;;;;;2071988;28;20228;-84
2023/09/25 03:31:02;;;;;;;9.03;5.37;;;5.10;99.90;;;;;;2071977;28;20216;-83
2023/09/25 03:32:03;;;;;;;7.70;5.25;;;5.10;99.90;;;;;;2067326;28;20719;-82
2023/09/25 03:33:04;;;;;;;7.30;4.50;;;5.10;99.90;;;;;;2071934;28;20185;-83
2023/09/25 03:34:04;;;;;;;6.23;4.57;;;5.10;99.90;;;;;;2072258;28;20185;-83
2023/09/25 03:35:05;;;;;;;6.50;4.37;;;5.10;99.90;;;;;;2071398;28;20678;-83
2023/09/25 03:36:07;;;;;;;6.30;4.28;;;5.10;99.90;;;;;;2072305;28;20193;-83
2023/09/25 03:37:07;;;;;;;5.00;3.60;;;5.00;99.90;;;;;;2063610;28;20197;-82
2023/09/25 03:38:09;;;;;;;4.13;3.37;;;5.00;99.90;;;;;;2072085;28;20185;-83
2023/09/25 03:39:10;;;;;;;4.53;3.80;;;5.00;99.90;;;;;;2069915;28;20181;-82
2023/09/25 03:40:11;;;;;;;4.95;3.80;;;5.00;99.90;;;;;;2072006;28;20604;-84
2023/09/25 03:41:11;;;;;;;5.17;3.93;;;5.00;99.90;;;;;;2071344;28;20212;-83
2023/09/25 03:42:12;;;;;;;5.20;3.90;;;4.90;99.90;;;;;;2071717;28;20220;-83
2023/09/25 03:43:12;;;;;;;5.63;4.20;;;4.90;99.90;;;;;;2071974;28;20217;-84
2023/09/25 03:44:13;;;;;;;4.37;3.93;;;4.80;99.90;;;;;;2071124;28;20292;-84
2023/09/25 03:45:13;;;;;;;5.90;3.80;;;4.70;99.90;;;;;;2071647;28;20220;-82
2023/09/25 03:46:14;;;;;;;6.23;3.97;;;4.80;99.90;;;;;;2064331;28;20197;-84
2023/09/25 03:47:15;;;;;;;4.33;3.57;;;4.80;99.90;;;;;;2064315;28;20236;-83
2023/09/25 03:48:16;;;;;;;4.72;3.85;;;4.80;99.90;;;;;;2062271;28;20177;-81
2023/09/25 03:49:16;;;;;;;5.37;3.30;;;4.80;99.90;;;;;;2062718;28;20673;-83
2023/09/25 03:50:17;;;;;;;4.37;3.40;;;4.80;99.90;;;;;;2063339;28;20551;-83
2023/09/25 03:51:17;;;;;;;5.20;3.33;;;4.80;99.90;;;;;;2071757;28;20575;-82
2023/09/25 03:52:18;;;;;;;4.47;3.30;;;4.80;99.90;;;;;;2072050;28;20209;-83
2023/09/25 03:53:19;;;;;;;5.67;3.80;;;4.80;99.90;;;;;;2071617;28;20195;-83
2023/09/25 03:54:19;;;;;;;4.07;3.40;;;4.80;99.90;;;;;;2069975;28;20187;-83
2023/09/25 03:55:20;;;;;;;5.77;3.33;;;4.80;99.90;;;;;;2071013;28;20277;-82
2023/09/25 03:56:20;;;;;;;5.03;3.27;;;4.80;99.90;;;;;;2070542;28;20316;-84
2023/09/25 03:57:21;;;;;;;4.30;3.30;;;4.80;99.90;;;;;;2073415;28;20280;-83
2023/09/25 03:58:22;;;;;;;4.23;3.37;;;4.80;99.90;;;;;;2079318;28;20241;-82
2023/09/25 03:59:23;;;;;;;5.88;3.88;;;4.80;99.90;;;;;;2079893;28;21303;-84
2023/09/25 04:00:24;;;;;;;4.63;3.37;;;4.70;99.90;;;;;;2074333;28;20367;-81
2023/09/25 04:01:25;;;;;;;5.25;4.10;;;4.70;99.90;;;;;;2074010;28;20230;-83
2023/09/25 04:02:26;;;;;;;6.68;4.38;;;4.70;99.90;;;;;;2065005;28;20230;-82
2023/09/25 04:03:26;;;;;;;4.23;3.53;;;4.80;99.90;;;;;;2073107;28;20252;-83
2023/09/25 04:04:27;;;;;;;5.67;3.60;;;4.80;99.90;;;;;;2073142;28;20271;-84
2023/09/25 04:05:27;;;;;;;3.80;3.40;;;4.80;99.90;;;;;;2064002;28;20251;-84
2023/09/25 04:06:28;;;;;;;6.37;3.90;;;4.80;99.90;;;;;;2064445;28;20275;-83
2023/09/25 04:07:29;;;;;;;5.53;4.20;;;4.90;99.90;;;;;;2064142;28;20320;-84
2023/09/25 04:08:30;;;;;;;4.50;3.10;;;4.90;99.90;;;;;;2060692;28;20293;-82
2023/09/25 04:09:30;;;;;;;4.80;3.75;;;4.90;99.90;;;;;;2071803;28;20241;-82
2023/09/25 04:10:31;;;;;;;4.60;3.20;;;4.90;99.90;;;;;;2072313;28;20623;-84
2023/09/25 04:11:32;;;;;;;3.80;3.50;;;4.90;99.90;;;;;;2063920;28;20693;-84
2023/09/25 04:12:34;;;;;;;4.73;3.60;;;4.80;99.90;;;;;;2072103;28;20236;-83
2023/09/25 04:13:34;;;;;;;4.10;3.30;;;4.90;99.90;;;;;;2072515;28;20240;-84
2023/09/25 04:14:35;;;;;;;4.83;3.20;;;4.90;99.90;;;;;;2061743;28;20260;-84
2023/09/25 04:15:37;;;;;;;3.50;3.17;;;4.90;99.90;;;;;;2061348;28;20241;-82
2023/09/25 04:16:38;;;;;;;3.72;3.40;;;4.90;99.90;;;;;;2064639;28;20248;-82
2023/09/25 04:17:43;;;;;;;4.00;3.28;;;4.90;99.90;;;;;;2073535;28;20775;-83
2023/09/25 04:18:43;;;;;;;4.68;3.40;;;4.90;99.90;;;;;;2072037;28;20227;-83
2023/09/25 04:19:44;;;;;;;3.80;3.50;;;4.90;99.90;;;;;;2072773;28;20311;-83
2023/09/25 04:20:45;;;;;;;3.50;3.20;;;4.90;99.90;;;;;;2072627;28;20239;-83
2023/09/25 04:21:47;;;;;;;5.28;3.70;;;4.90;99.90;;;;;;2071755;28;20753;-84
2023/09/25 04:22:48;;;;;;;3.97;3.30;;;4.90;99.90;;;;;;2069318;28;20224;-84
2023/09/25 04:23:48;;;;;;;5.17;3.90;;;4.90;99.90;;;;;;2072155;28;20240;-84
2023/09/25 04:24:49;;;;;;;4.43;3.37;;;4.90;99.90;;;;;;2071929;28;20350;-83
2023/09/25 04:25:52;;;;;;;3.77;3.37;;;4.90;99.90;;;;;;2072242;28;20305;-83
2023/09/25 04:26:54;;;;;;;5.95;3.20;;;5.00;99.90;;;;;;2073810;28;20632;-83
2023/09/25 04:27:55;;;;;;;4.80;3.33;;;5.00;99.90;;;;;;2064273;28;20235;-83
2023/09/25 04:28:57;;;;;;;4.30;3.30;;;5.00;99.90;;;;;;2063900;28;20671;-84
2023/09/25 04:29:57;;;;;;;5.78;3.75;;;5.00;99.90;;;;;;2072283;28;20231;-83
2023/09/25 04:30:59;;;;;;;3.57;3.27;;;5.00;99.90;;;;;;2071099;28;20295;-84
2023/09/25 04:32:00;;;;;;;3.42;3.03;;;5.00;99.90;;;;;;2063307;28;20297;-83
2023/09/25 04:33:00;;;;;;;3.97;3.13;;;5.00;99.90;;;;;;2056651;28;20788;-84
2023/09/25 04:34:03;;;;;;;6.00;3.07;;;5.00;99.90;;;;;;2072136;28;20599;-84
2023/09/25 04:35:07;;;;;;;5.13;3.15;;;5.00;99.90;;;;;;2071592;28;20219;-83
2023/09/25 04:36:10;;;;;;;4.32;3.08;;;5.00;99.90;;;;;;2069192;28;20264;-84
2023/09/25 04:37:10;;;;;;;7.40;2.90;;;4.90;99.90;;;;;;2071579;28;20191;-83
2023/09/25 04:38:12;;;;;;;3.33;3.03;;;4.90;99.90;;;;;;2070992;28;20181;-83
2023/09/25 04:39:16;;;;;;;3.95;3.15;;;4.90;99.90;;;;;;2070206;28;20271;-82
2023/09/25 04:41:21;;;;;;;5.22;3.50;;;4.90;99.90;;;;;;2069650;28;20208;-83
2023/09/25 04:42:22;;;;;;;4.23;3.13;;;4.90;99.90;;;;;;2069413;28;20654;-83
2023/09/25 04:43:23;;;;;;;3.70;3.20;;;4.90;99.90;;;;;;2070772;28;20732;-83
2023/09/25 04:44:24;;;;;;;4.47;3.40;;;4.90;99.90;;;;;;2070846;28;20308;-82
2023/09/25 04:45:24;;;;;;;4.33;3.57;;;4.90;99.90;;;;;;2067477;28;20298;-82
2023/09/25 04:46:25;;;;;;;3.73;3.10;;;4.80;99.90;;;;;;2071532;28;20254;-82
2023/09/25 04:47:25;;;;;;;3.93;3.37;;;4.90;99.90;;;;;;2063308;28;20302;-83
2023/09/25 04:48:27;;;;;;;3.40;3.10;;;4.90;99.90;;;;;;2061968;28;20240;-82
2023/09/25 04:49:30;;;;;;;4.28;3.70;;;4.90;99.90;;;;;;2062556;28;20229;-81
2023/09/25 04:50:31;;;;;;;5.43;3.67;;;4.90;99.90;;;;;;2071237;28;20240;-83
2023/09/25 04:51:34;;;;;;;4.13;3.53;;;4.90;99.90;;;;;;2072115;28;20271;-83
2023/09/25 04:52:42;;;;;;;4.03;3.63;;;4.90;99.90;;;;;;2070912;28;20764;-83
2023/09/25 04:53:43;;;;;;;4.28;3.38;;;4.90;99.90;;;;;;2068723;28;20239;-83
2023/09/25 04:54:43;;;;;;;4.10;3.23;;;4.90;99.90;;;;;;2070486;28;20263;-82
2023/09/25 04:55:45;;;;;;;3.57;3.27;;;4.90;99.90;;;;;;2070883;28;20255;-85
2023/09/25 04:56:47;;;;;;;3.72;3.20;;;4.90;99.90;;;;;;2063310;28;20256;-82
2023/09/25 04:57:48;;;;;;;6.10;3.40;;;4.90;99.90;;;;;;2062405;28;20626;-83
2023/09/25 04:58:48;;;;;;;3.65;2.78;;;4.80;99.90;;;;;;2068969;28;20252;-83
2023/09/25 04:59:49;;;;;;;5.87;2.83;;;4.90;99.90;;;;;;2070884;28;20315;-82
2023/09/25 05:00:49;;;;;;;3.70;3.00;;;4.90;99.90;;;;;;2070799;28;20373;-83
2023/09/25 05:01:50;;;;;;;5.10;3.03;;;4.90;99.90;;;;;;2069880;28;20318;-83
2023/09/25 05:02:52;;;;;;;3.10;2.63;;;4.90;99.90;;;;;;2071469;28;20268;-83
2023/09/25 05:03:53;;;;;;;3.47;2.75;;;4.80;99.90;;;;;;2072241;28;20492;-82
2023/09/25 05:04:53;;;;;;;4.27;3.07;;;4.80;99.90;;;;;;2071327;28;20665;-83
2023/09/25 05:05:54;;;;;;;4.50;3.40;;;4.80;99.90;;;;;;2070990;28;20647;-82
2023/09/25 05:06:55;;;;;;;4.60;3.22;;;4.80;99.90;;;;;;2070872;28;20216;-83
2023/09/25 05:07:56;;;;;;;3.77;2.97;;;4.80;99.90;;;;;;2070434;28;20234;-83
2023/09/25 05:08:57;;;;;;;4.40;2.92;;;4.80;99.90;;;;;;2062730;28;20231;-82
2023/09/25 05:09:57;;;;;;;3.63;3.13;;;4.70;99.90;;;;;;2068972;28;20213;-84
2023/09/25 05:10:58;;;;;;;5.60;3.13;;;4.80;99.90;;;;;;2068242;28;20228;-82
2023/09/25 05:11:59;;;;;;;3.37;2.33;;;4.70;99.90;;;;;;2060027;28;20224;-82
2023/09/25 05:12:59;;;;;;;3.13;2.83;;;4.70;99.90;;;;;;2071062;28;20514;-82
2023/09/25 05:14:00;;;;;;;5.80;2.33;;;4.70;99.90;;;;;;2071807;28;20219;-83
2023/09/25 05:15:00;;;;;;;5.30;2.80;;;4.70;99.90;;;;;;2065529;28;20752;-83
2023/09/25 05:16:01;;;;;;;3.27;2.60;;;4.80;99.90;;;;;;2073541;28;20677;-82
2023/09/25 05:17:03;;;;;;;4.72;3.13;;;4.70;99.90;;;;;;2072009;28;20213;-84
2023/09/25 05:18:04;;;;;;;4.35;3.45;;;4.70;99.90;;;;;;2072064;28;20226;-84
2023/09/25 05:19:04;;;;;;;4.67;3.10;;;4.60;99.90;;;;;;2072432;28;20184;-83
2023/09/25 05:20:16;;;;;;;4.57;3.30;;;4.60;99.90;;;;;;2063947;28;20260;-82
2023/09/25 05:21:16;;;;;;;3.22;2.88;;;4.50;99.90;;;;;;2064028;28;20278;-83
2023/09/25 05:22:17;;;;;;;3.97;3.17;;;4.50;99.90;;;;;;2064370;28;20181;-82
2023/09/25 05:23:20;;;;;;;4.50;3.63;;;4.50;99.90;;;;;;2073218;28;20198;-83
2023/09/25 05:24:21;;;;;;;4.57;4.18;;;4.50;99.90;;;;;;2073520;28;20299;-83